Decoded Metar for YBCS (CAIRNS in AUSTRALIA) (IATA:CNS) | Meteo·Mobile Aviation Weather
aviador You're here:

YBCS Decoded Metar

CAIRNS in AUSTRALIA
Report Time2018-10-22 14:30:00
UTC Time2018-10-22 15:08:04
Flight Rules vfr VFR
Wind330° at 05 kt
W.Decomp.*RWY 33: 5.0 kt HW 0.6 kt LCW
RWY 30: 4.6 kt HW 2.0 kt RCW
W.Rank330° ranks 33
Current wind is above 330° avg. (3.7)
Visibility9999 m
Phenomena:Light Rain
Clouds:Few 023 Hf
Broken 130 Hf
Expected CloudBase > 1,200 ft AGL from Temp-Dew spread
Ceiling13,000 ft
Temp25°C (ISA +10)
Dew Point22°C (83% RH)
QNH1012 hPa
Density Alt1,568 ft
Elevation23 ft
Report Wrong Elevation
Raw Report
YBCS 221430Z 33005KT 9999 -RA FEW023 BKN130 25/22 Q1012 NOSIG=

Extra information for YBCS:More info

Metar Taf Metar & Taf Last 4 Metars F.Rules Stats Wind Profile Meteogram Temp Stats Airport Information Weather charts Add Link Nearby VenuesMetar ALERT Operation Metar Decoded Social comments